createdAt,value
2023-03-23T15:58:19.936Z,14.22
2023-03-23T16:00:49.174Z,14.13
2023-03-23T16:03:27.736Z,14.09
2023-03-23T16:06:00.002Z,13.96
2023-03-23T16:08:27.260Z,13.92
2023-03-23T16:10:53.769Z,13.90
2023-03-23T16:13:20.633Z,13.93
2023-03-23T16:15:48.475Z,13.97
2023-03-23T16:18:21.652Z,14.06
2023-03-23T16:20:49.346Z,14.09
2023-03-23T16:23:16.043Z,14.09
2023-03-23T16:25:42.890Z,14.03
2023-03-23T16:28:14.027Z,13.95
2023-03-23T16:30:41.436Z,13.91
2023-03-23T16:33:08.085Z,13.92
2023-03-23T16:35:35.823Z,13.91
2023-03-23T16:38:07.660Z,13.88
2023-03-23T16:40:36.966Z,13.85
2023-03-23T16:43:09.099Z,13.80
2023-03-23T16:45:37.992Z,13.82
2023-03-23T16:48:05.569Z,13.82
2023-03-23T16:50:32.812Z,13.80
2023-03-23T16:52:59.363Z,13.75
2023-03-23T16:55:27.173Z,13.71
2023-03-23T16:58:05.295Z,13.66
2023-03-23T17:00:36.177Z,13.67
2023-03-23T17:03:02.888Z,13.65
2023-03-23T17:05:29.742Z,13.67
2023-03-23T17:07:56.806Z,13.65
2023-03-23T17:10:30.048Z,13.66
2023-03-23T17:12:56.657Z,13.62
2023-03-23T17:15:25.540Z,13.58
2023-03-23T17:17:52.489Z,13.52
2023-03-23T17:20:19.081Z,13.46
2023-03-23T17:22:45.620Z,13.44
2023-03-23T17:25:12.721Z,13.39
2023-03-23T17:27:39.434Z,13.35
2023-03-23T17:30:08.202Z,13.30
2023-03-23T17:32:35.443Z,13.27
2023-03-23T17:35:02.288Z,13.22
2023-03-23T17:37:28.797Z,13.16
2023-03-23T17:39:55.253Z,13.12
2023-03-23T17:42:22.169Z,13.07
2023-03-23T17:44:48.678Z,13.04
2023-03-23T17:47:15.777Z,12.97
2023-03-23T17:49:42.437Z,12.98
2023-03-23T17:52:09.099Z,12.93
2023-03-23T17:54:35.955Z,12.92
2023-03-23T17:57:04.043Z,12.92
2023-03-23T17:59:31.673Z,12.88
2023-03-23T18:01:58.398Z,12.85
2023-03-23T18:04:27.209Z,12.83
2023-03-23T18:06:57.956Z,12.79
2023-03-23T18:09:25.825Z,12.73
2023-03-23T18:11:53.150Z,12.70
2023-03-23T18:14:20.814Z,12.66
2023-03-23T18:16:48.233Z,12.64
2023-03-23T18:19:14.901Z,12.63
2023-03-23T18:21:43.825Z,12.57
2023-03-23T18:24:12.153Z,12.56
2023-03-23T18:26:38.756Z,12.54
2023-03-23T18:29:05.251Z,12.52
2023-03-23T18:31:32.864Z,12.49
2023-03-23T18:34:00.077Z,12.49
2023-03-23T18:36:27.839Z,12.50
2023-03-23T18:38:56.627Z,12.47
2023-03-23T18:41:23.672Z,12.46
2023-03-23T18:43:50.202Z,12.44
2023-03-23T18:46:16.908Z,12.42
2023-03-23T18:48:43.921Z,12.42
2023-03-23T18:51:11.541Z,12.38
2023-03-23T18:53:38.122Z,12.34
2023-03-23T18:56:10.871Z,12.30
2023-03-23T18:58:37.655Z,12.23
2023-03-23T19:01:11.145Z,12.17
2023-03-23T19:03:38.740Z,12.14
2023-03-23T19:06:06.242Z,12.11
2023-03-23T19:08:33.100Z,12.04
2023-03-23T19:11:04.697Z,12.00
2023-03-23T19:13:37.548Z,11.97
2023-03-23T19:16:05.723Z,11.96
2023-03-23T19:18:32.491Z,11.91
2023-03-23T19:23:28.547Z,11.85
2023-03-23T19:25:55.185Z,11.84
2023-03-23T19:29:05.635Z,11.78
2023-03-23T19:31:08.666Z,11.73
2023-03-23T19:33:35.553Z,11.76
2023-03-23T19:36:10.222Z,11.72
2023-03-23T19:38:39.458Z,11.71
2023-03-23T19:41:06.537Z,11.69
2023-03-23T19:43:33.750Z,11.66
2023-03-23T19:46:01.764Z,11.62
2023-03-23T19:48:30.199Z,11.62
2023-03-23T19:50:57.560Z,11.59
2023-03-23T19:53:24.480Z,11.57
2023-03-23T19:55:51.679Z,11.55
2023-03-23T19:58:18.723Z,11.53
2023-03-23T20:00:45.909Z,11.53
2023-03-23T20:03:13.088Z,11.49
2023-03-23T20:05:40.727Z,11.49
2023-03-23T20:08:09.314Z,11.45
2023-03-23T20:10:36.458Z,11.45
2023-03-23T20:13:04.258Z,11.45
2023-03-23T20:15:31.584Z,11.43
2023-03-23T20:17:58.421Z,11.40
2023-03-23T20:20:25.366Z,11.41
2023-03-23T20:22:54.412Z,11.40
2023-03-23T20:25:22.791Z,11.39
2023-03-23T20:27:49.328Z,11.35
2023-03-23T20:30:16.992Z,11.33
2023-03-23T20:32:46.374Z,11.34
2023-03-23T20:35:14.680Z,11.33
2023-03-23T20:37:41.302Z,11.30
2023-03-23T20:40:14.970Z,11.28
2023-03-23T20:42:44.068Z,11.25
2023-03-23T20:45:13.035Z,11.23
2023-03-23T20:47:40.885Z,11.22
2023-03-23T20:50:10.056Z,11.17
2023-03-23T20:52:37.112Z,11.19
2023-03-23T20:55:04.696Z,11.18
2023-03-23T20:57:31.182Z,11.16
2023-03-23T20:59:57.877Z,11.14
2023-03-23T21:02:29.809Z,11.14
2023-03-23T21:04:58.155Z,11.13
2023-03-23T21:07:27.464Z,11.12
2023-03-23T21:09:54.019Z,11.08
2023-03-23T21:12:20.570Z,11.07
2023-03-23T21:14:47.655Z,11.05
2023-03-23T21:17:14.188Z,11.05
2023-03-23T21:19:41.351Z,11.03
2023-03-23T21:22:09.790Z,11.03
2023-03-23T21:24:38.587Z,11.02
2023-03-23T21:27:05.416Z,11.01
2023-03-23T21:29:32.485Z,11.02
2023-03-23T21:34:28.565Z,10.97
2023-03-23T21:36:55.464Z,10.96
2023-03-23T21:39:22.554Z,10.93
2023-03-23T21:41:49.847Z,10.93
2023-03-23T21:44:18.131Z,10.95
2023-03-23T21:46:44.674Z,10.90
2023-03-23T21:49:14.019Z,10.91
2023-03-23T21:51:42.754Z,10.88
2023-03-23T21:54:11.806Z,10.86
2023-03-23T21:56:38.804Z,10.85
2023-03-23T21:59:07.460Z,10.85
2023-03-23T22:01:37.245Z,10.83
2023-03-23T22:04:04.749Z,10.81
2023-03-23T22:06:34.292Z,10.81
2023-03-23T22:09:05.249Z,10.79
2023-03-23T22:11:32.823Z,10.78
2023-03-23T22:14:00.180Z,10.78
2023-03-23T22:16:26.993Z,10.79
2023-03-23T22:18:55.246Z,10.78
2023-03-23T22:21:26.013Z,10.74
2023-03-23T22:23:58.539Z,10.75
2023-03-23T22:26:27.277Z,10.73
2023-03-23T22:28:54.358Z,10.73
2023-03-23T22:31:23.896Z,10.71
2023-03-23T22:33:54.291Z,10.68
2023-03-23T22:36:22.995Z,10.68
2023-03-23T22:38:51.379Z,10.66
2023-03-23T22:41:22.829Z,10.63
2023-03-23T22:43:49.453Z,10.58
2023-03-23T22:46:17.052Z,10.59
2023-03-23T22:48:44.944Z,10.57
2023-03-23T22:51:14.392Z,10.55
2023-03-23T22:53:41.294Z,10.55
2023-03-23T22:56:08.774Z,10.54
2023-03-23T22:58:35.950Z,10.52
2023-03-23T23:01:06.570Z,10.51
2023-03-23T23:03:34.396Z,10.46
2023-03-23T23:06:01.336Z,10.48
2023-03-23T23:08:30.051Z,10.47
2023-03-23T23:10:58.964Z,10.47
2023-03-23T23:13:26.398Z,10.47
2023-03-23T23:15:55.222Z,10.45
2023-03-23T23:18:22.819Z,10.46
2023-03-23T23:20:51.409Z,10.46
2023-03-23T23:23:18.249Z,10.44
2023-03-23T23:25:44.953Z,10.43
2023-03-23T23:28:12.233Z,10.44
2023-03-23T23:30:39.266Z,10.42
2023-03-23T23:33:07.582Z,10.41
2023-03-23T23:35:37.002Z,10.41
2023-03-23T23:38:04.553Z,10.39
2023-03-23T23:40:33.075Z,10.41
2023-03-23T23:42:59.998Z,10.41
2023-03-23T23:45:26.565Z,10.42
2023-03-23T23:47:53.333Z,10.41
2023-03-23T23:50:20.463Z,10.42
2023-03-23T23:52:47.131Z,10.41
2023-03-23T23:55:15.951Z,10.42
2023-03-23T23:57:44.435Z,10.41
